Terminal Aerodrome Forecast
Issued by NWS

Home | Current Version | Previous Version | Graphics & Text | Print | Product List | Glossary On
Versions: 1 2 3 4 5 6 7 8 9 10 11 12 13
000
FTUS42 KMHX 241728
TAFOAJ
TAF
KOAJ 241728Z 2418/2518 18008KT P6SM VCSH SCT025 BKN040
     FM242300 19011KT 5SM SHRA VCTS SCT007 OVC020CB
     FM250600 20010KT P6SM OVC015
     FM250900 22009KT P6SM SCT015 BKN040
     FM251500 22015G23KT P6SM SCT050
      AMD LTD TO CLD VIS AND WIND=

USA.gov is the U.S. government's official web portal to all federal, state and local government web resources and services.